Terminal Aerodrome Forecast
Issued by NWS Denver/Boulder, CO

Home | Current Version | Previous Version | Text Only | Print | Product List | Glossary On
Versions: 1 2 3 4 5 6 7 8 9 10 11 12 13 14 15 16 17 18 19 20 21 22 23 24 25 26 27 28 29 30 31 32 33 34 35 36
000
FTUS45 KBOU 280851 AAA
TAFDEN
TAF AMD
KDEN 280851Z 2809/2912 17010KT P6SM SCT200
     FM281200 19006KT P6SM SCT250
     FM281500 VRB04KT P6SM FEW250
     FM281800 09007KT P6SM FEW250
     FM290100 14007KT P6SM FEW250
     FM290400 20008KT P6SM FEW250=

USA.gov is the U.S. government's official web portal to all federal, state and local government web resources and services.